createdAt,value
2022-08-03T00:00:06.027Z,17.58
2022-08-03T00:01:06.018Z,17.57
2022-08-03T00:02:06.037Z,17.55
2022-08-03T00:03:06.055Z,17.54
2022-08-03T00:04:05.979Z,17.53
2022-08-03T00:05:05.989Z,17.49
2022-08-03T00:06:05.960Z,17.49
2022-08-03T00:07:05.950Z,17.49
2022-08-03T00:08:06.041Z,17.47
2022-08-03T00:09:05.921Z,17.45
2022-08-03T00:10:05.901Z,17.43
2022-08-03T00:11:05.891Z,17.40
2022-08-03T00:12:05.882Z,17.38
2022-08-03T00:13:05.863Z,17.36
2022-08-03T00:14:05.887Z,17.33
2022-08-03T00:15:05.843Z,17.32
2022-08-03T00:16:06.823Z,17.33
2022-08-03T00:17:05.819Z,17.27
2022-08-03T00:18:05.794Z,17.25
2022-08-03T00:19:05.791Z,17.24
2022-08-03T00:20:05.792Z,17.24
2022-08-03T00:21:05.795Z,17.22
2022-08-03T00:22:05.747Z,17.24
2022-08-03T00:23:05.735Z,17.22
2022-08-03T00:24:05.718Z,17.22
2022-08-03T00:25:05.717Z,17.21
2022-08-03T00:26:05.717Z,17.20
2022-08-03T00:27:05.699Z,17.18
2022-08-03T00:28:05.669Z,17.18
2022-08-03T00:29:05.659Z,17.18
2022-08-03T00:30:05.639Z,17.18
2022-08-03T00:31:05.640Z,17.17
2022-08-03T00:32:05.649Z,17.15
2022-08-03T00:33:05.613Z,17.17
2022-08-03T00:34:06.026Z,17.15
2022-08-03T00:35:08.378Z,17.14
2022-08-03T00:36:06.570Z,17.15
2022-08-03T00:37:05.560Z,17.15
2022-08-03T00:38:05.545Z,17.15
2022-08-03T00:39:05.529Z,17.17
2022-08-03T00:40:05.625Z,17.12
2022-08-03T00:41:05.502Z,17.12
2022-08-03T00:42:05.491Z,17.14
2022-08-03T00:43:05.509Z,17.15
2022-08-03T00:44:05.453Z,17.15
2022-08-03T00:45:05.452Z,17.17
2022-08-03T00:46:05.434Z,17.15
2022-08-03T00:47:05.426Z,17.15
2022-08-03T00:48:05.435Z,17.12
2022-08-03T00:49:05.455Z,17.07
2022-08-03T00:50:05.385Z,17.07
2022-08-03T00:51:05.384Z,17.03
2022-08-03T00:52:09.512Z,17.03
2022-08-03T00:53:05.360Z,17.02
2022-08-03T00:54:05.447Z,17.02
2022-08-03T00:55:05.327Z,17.03
2022-08-03T00:56:05.308Z,17.05
2022-08-03T00:57:05.299Z,17.05
2022-08-03T00:58:05.292Z,17.02
2022-08-03T00:59:05.271Z,17.00
2022-08-03T01:00:05.290Z,17.00
2022-08-03T01:01:05.290Z,16.99
2022-08-03T01:02:05.229Z,17.00
2022-08-03T01:03:05.211Z,16.98
2022-08-03T01:04:05.201Z,17.00
2022-08-03T01:05:05.199Z,16.99
2022-08-03T01:06:05.220Z,17.00
2022-08-03T01:07:05.171Z,17.02
2022-08-03T01:08:06.152Z,16.99
2022-08-03T01:09:05.144Z,16.98
2022-08-03T01:10:05.123Z,16.95
2022-08-03T01:11:05.114Z,16.92
2022-08-03T01:12:05.128Z,16.91
2022-08-03T01:13:05.091Z,16.90
2022-08-03T01:14:18.732Z,16.88
2022-08-03T01:15:06.070Z,16.87
2022-08-03T01:16:05.045Z,16.84
2022-08-03T01:17:05.044Z,16.82
2022-08-03T01:18:05.056Z,16.81
2022-08-03T01:19:05.016Z,16.80
2022-08-03T01:20:05.003Z,16.80
2022-08-03T01:21:04.989Z,16.77
2022-08-03T01:22:04.971Z,16.73
2022-08-03T01:23:04.959Z,16.70
2022-08-03T01:24:04.968Z,16.67
2022-08-03T01:25:04.938Z,16.65
2022-08-03T01:26:04.918Z,16.63
2022-08-03T01:27:04.909Z,16.65
2022-08-03T01:28:04.891Z,16.66
2022-08-03T01:29:04.880Z,16.65
2022-08-03T01:30:04.894Z,16.65
2022-08-03T01:31:04.852Z,16.63
2022-08-03T01:32:58.489Z,16.66
2022-08-03T01:33:06.120Z,16.65
2022-08-03T01:34:04.812Z,16.63
2022-08-03T01:35:04.802Z,16.65
2022-08-03T01:36:04.812Z,16.65
2022-08-03T01:37:04.772Z,16.60
2022-08-03T01:38:04.763Z,16.59
2022-08-03T01:39:04.763Z,16.59
2022-08-03T01:40:04.734Z,16.57
2022-08-03T01:41:04.733Z,16.57
2022-08-03T01:42:04.734Z,16.54
2022-08-03T01:43:04.703Z,16.52
2022-08-03T01:44:30.134Z,16.48
2022-08-03T01:45:05.678Z,16.50
2022-08-03T01:46:04.654Z,16.47
2022-08-03T01:47:04.651Z,16.45
2022-08-03T01:48:04.656Z,16.47
2022-08-03T01:49:09.210Z,16.48
2022-08-03T01:50:04.624Z,16.48
2022-08-03T01:51:04.597Z,16.45
2022-08-03T01:52:05.501Z,16.42
2022-08-03T01:53:04.619Z,16.44
2022-08-03T01:54:04.597Z,16.42
2022-08-03T01:55:04.559Z,16.40
2022-08-03T01:56:04.549Z,16.41
2022-08-03T01:57:04.518Z,16.37
2022-08-03T01:58:06.541Z,16.40
2022-08-03T01:59:04.545Z,16.37
2022-08-03T02:00:04.500Z,16.34
2022-08-03T02:01:04.513Z,16.33
2022-08-03T02:02:28.361Z,16.32
2022-08-03T02:03:05.432Z,16.34
2022-08-03T02:04:04.423Z,16.36
2022-08-03T02:05:04.412Z,16.34
2022-08-03T02:06:56.827Z,16.36
2022-08-03T02:07:05.384Z,16.36
2022-08-03T02:08:04.374Z,16.40
2022-08-03T02:09:04.352Z,16.41
2022-08-03T02:10:04.344Z,16.41
2022-08-03T02:11:04.332Z,16.40
2022-08-03T02:12:04.351Z,16.40
2022-08-03T02:13:04.340Z,16.37
2022-08-03T02:14:04.295Z,16.36
2022-08-03T02:15:04.275Z,16.33
2022-08-03T02:16:04.287Z,16.30
2022-08-03T02:17:04.256Z,16.29
2022-08-03T02:18:04.266Z,16.26
2022-08-03T02:19:04.228Z,16.26
2022-08-03T02:20:04.218Z,16.26
2022-08-03T02:21:10.842Z,16.23
2022-08-03T02:22:05.187Z,16.22
2022-08-03T02:23:04.169Z,16.18
2022-08-03T02:24:04.186Z,16.14
2022-08-03T02:25:04.148Z,16.14
2022-08-03T02:26:04.139Z,16.11
2022-08-03T02:27:04.119Z,16.07
2022-08-03T02:28:04.110Z,16.06
2022-08-03T02:29:04.142Z,16.04
2022-08-03T02:30:04.112Z,16.04
2022-08-03T02:31:04.074Z,16.03
2022-08-03T02:32:04.053Z,16.04
2022-08-03T02:33:04.055Z,16.06
2022-08-03T02:34:04.041Z,16.06
2022-08-03T02:35:04.013Z,16.07
2022-08-03T02:36:04.122Z,16.08
2022-08-03T02:37:03.992Z,16.17
2022-08-03T02:38:03.985Z,16.23
2022-08-03T02:39:03.973Z,16.25
2022-08-03T02:40:03.954Z,16.25
2022-08-03T02:41:03.933Z,16.27
2022-08-03T02:42:03.947Z,16.29
2022-08-03T02:43:03.910Z,16.29
2022-08-03T02:44:06.673Z,16.29
2022-08-03T02:45:03.885Z,16.26
2022-08-03T02:46:03.876Z,16.25
2022-08-03T02:47:03.855Z,16.22
2022-08-03T02:48:03.976Z,16.17
2022-08-03T02:49:40.623Z,16.17
2022-08-03T02:50:04.887Z,16.16
2022-08-03T02:51:03.800Z,16.16
2022-08-03T02:52:03.799Z,16.10
2022-08-03T02:53:03.781Z,16.11
2022-08-03T02:54:03.798Z,16.10
2022-08-03T02:55:03.759Z,16.11
2022-08-03T02:56:03.740Z,16.13
2022-08-03T02:57:03.730Z,16.13
2022-08-03T02:58:03.727Z,16.14
2022-08-03T02:59:03.701Z,16.13
2022-08-03T03:00:03.803Z,16.11
2022-08-03T03:01:03.733Z,16.08
2022-08-03T03:02:03.662Z,16.06
2022-08-03T03:03:03.663Z,16.04
2022-08-03T03:04:03.644Z,15.99
2022-08-03T03:05:56.453Z,15.98
2022-08-03T03:06:05.735Z,15.96
2022-08-03T03:07:04.429Z,15.93
2022-08-03T03:08:03.656Z,15.91
2022-08-03T03:09:04.593Z,15.89
2022-08-03T03:10:03.554Z,15.84
2022-08-03T03:11:03.544Z,15.81
2022-08-03T03:12:03.554Z,15.80
2022-08-03T03:13:03.517Z,15.80
2022-08-03T03:14:03.507Z,15.78
2022-08-03T03:15:03.486Z,15.77
2022-08-03T03:16:03.481Z,15.77
2022-08-03T03:17:03.467Z,15.77
2022-08-03T03:18:03.566Z,15.77
2022-08-03T03:19:03.437Z,15.77
2022-08-03T03:20:03.429Z,15.74
2022-08-03T03:21:03.408Z,15.73
2022-08-03T03:22:03.417Z,15.71
2022-08-03T03:23:03.412Z,15.70
2022-08-03T03:24:03.410Z,15.67
2022-08-03T03:25:03.359Z,15.66
2022-08-03T03:26:03.351Z,15.64
2022-08-03T03:27:03.342Z,15.64
2022-08-03T03:28:03.319Z,15.62
2022-08-03T03:29:03.310Z,15.62
2022-08-03T03:30:03.320Z,15.62
2022-08-03T03:31:03.281Z,15.62
2022-08-03T03:32:03.273Z,15.62
2022-08-03T03:33:04.261Z,15.59
2022-08-03T03:34:03.243Z,15.59
2022-08-03T03:35:03.222Z,15.58
2022-08-03T03:36:03.254Z,15.58
2022-08-03T03:37:03.203Z,15.56
2022-08-03T03:38:03.196Z,15.56
2022-08-03T03:39:15.336Z,15.56
2022-08-03T03:40:04.176Z,15.58
2022-08-03T03:41:03.144Z,15.59
2022-08-03T03:42:03.175Z,15.58
2022-08-03T03:43:03.146Z,15.62
2022-08-03T03:44:03.119Z,15.64
2022-08-03T03:45:03.099Z,15.62
2022-08-03T03:46:03.096Z,15.64
2022-08-03T03:47:03.067Z,15.60
2022-08-03T03:48:03.173Z,15.60
2022-08-03T03:49:03.106Z,15.59
2022-08-03T03:50:03.035Z,15.58
2022-08-03T03:51:03.018Z,15.55
2022-08-03T03:52:03.007Z,15.53
2022-08-03T03:53:02.988Z,15.52
2022-08-03T03:54:03.018Z,15.51
2022-08-03T03:55:02.967Z,15.51
2022-08-03T03:56:03.188Z,15.52
2022-08-03T03:57:02.947Z,15.52
2022-08-03T03:58:02.930Z,15.53
2022-08-03T03:59:02.943Z,15.55
2022-08-03T04:00:02.940Z,15.53
2022-08-03T04:01:02.967Z,15.53
2022-08-03T04:02:02.886Z,15.52
2022-08-03T04:03:02.861Z,15.51
2022-08-03T04:04:02.851Z,15.49
2022-08-03T04:05:02.908Z,15.46
2022-08-03T04:06:02.941Z,15.46
2022-08-03T04:07:02.812Z,15.46
2022-08-03T04:08:02.803Z,15.46
2022-08-03T04:09:02.784Z,15.49
2022-08-03T04:10:14.263Z,15.49
2022-08-03T04:11:03.810Z,15.51
2022-08-03T04:12:02.753Z,15.52
2022-08-03T04:13:02.736Z,15.53
2022-08-03T04:14:02.715Z,15.56
2022-08-03T04:15:02.716Z,15.56
2022-08-03T04:16:02.703Z,15.56
2022-08-03T04:17:02.704Z,15.58
2022-08-03T04:18:02.668Z,15.58
2022-08-03T04:19:02.655Z,15.59
2022-08-03T04:20:02.647Z,15.62
2022-08-03T04:21:02.638Z,15.64
2022-08-03T04:22:02.629Z,15.68
2022-08-03T04:23:02.629Z,15.71
2022-08-03T04:24:02.589Z,15.70
2022-08-03T04:25:02.592Z,15.73
2022-08-03T04:26:02.569Z,15.76
2022-08-03T04:27:02.550Z,15.76
2022-08-03T04:28:20.961Z,15.77
2022-08-03T04:29:03.561Z,15.80
2022-08-03T04:30:02.511Z,15.85
2022-08-03T04:31:02.503Z,15.89
2022-08-03T04:32:03.152Z,15.93
2022-08-03T04:33:02.472Z,15.96
2022-08-03T04:34:02.472Z,16.03
2022-08-03T04:35:02.474Z,16.07
2022-08-03T04:36:03.606Z,16.08
2022-08-03T04:37:02.414Z,16.11
2022-08-03T04:38:02.416Z,16.16
2022-08-03T04:39:02.396Z,16.17
2022-08-03T04:40:02.394Z,16.18
2022-08-03T04:41:02.393Z,16.23
2022-08-03T04:42:08.570Z,16.26
2022-08-03T04:43:03.344Z,16.27
2022-08-03T04:44:02.334Z,16.29
2022-08-03T04:45:02.317Z,16.30
2022-08-03T04:46:02.306Z,16.33
2022-08-03T04:47:02.400Z,16.33
2022-08-03T04:48:02.944Z,16.36
2022-08-03T04:49:02.307Z,16.37
2022-08-03T04:50:02.256Z,16.41
2022-08-03T04:51:02.238Z,16.45
2022-08-03T04:52:02.229Z,16.50
2022-08-03T04:53:02.320Z,16.52
2022-08-03T04:54:02.210Z,16.57
2022-08-03T04:55:02.189Z,16.60
2022-08-03T04:56:02.182Z,16.63
2022-08-03T04:57:02.160Z,16.67
2022-08-03T04:58:02.152Z,16.73
2022-08-03T04:59:02.250Z,16.77
2022-08-03T05:00:03.643Z,16.80
2022-08-03T05:01:02.113Z,16.84
2022-08-03T05:02:02.118Z,16.88
2022-08-03T05:03:02.083Z,16.91
2022-08-03T05:04:02.072Z,16.96
2022-08-03T05:05:02.083Z,17.00
2022-08-03T05:06:11.147Z,17.03
2022-08-03T05:07:12.494Z,17.09
2022-08-03T05:08:03.475Z,17.14
2022-08-03T05:09:02.004Z,17.18
2022-08-03T05:10:03.183Z,17.22
2022-08-03T05:11:02.009Z,17.22
2022-08-03T05:12:01.975Z,17.27
2022-08-03T05:13:01.957Z,17.32
2022-08-03T05:14:01.947Z,17.35
2022-08-03T05:15:01.930Z,17.39
2022-08-03T05:16:01.917Z,17.43
2022-08-03T05:17:01.937Z,17.46
2022-08-03T05:18:01.889Z,17.51
2022-08-03T05:19:01.877Z,17.57
2022-08-03T05:20:01.870Z,17.62
2022-08-03T05:21:01.858Z,17.66
2022-08-03T05:22:01.839Z,17.70
2022-08-03T05:23:01.845Z,17.73
2022-08-03T05:24:01.821Z,17.77
2022-08-03T05:25:01.803Z,17.80
2022-08-03T05:26:01.782Z,17.83
2022-08-03T05:27:01.776Z,17.86
2022-08-03T05:28:01.761Z,17.91
2022-08-03T05:29:01.769Z,17.96
2022-08-03T05:30:30.733Z,18.01
2022-08-03T05:31:02.721Z,18.05
2022-08-03T05:32:06.216Z,18.10
2022-08-03T05:33:02.705Z,18.14
2022-08-03T05:34:01.685Z,18.21
2022-08-03T05:36:00.984Z,18.28
2022-08-03T05:36:04.410Z,18.34
2022-08-03T05:37:01.647Z,18.38
2022-08-03T05:38:01.637Z,18.47
2022-08-03T05:39:02.875Z,18.50
2022-08-03T05:40:01.648Z,18.54
2022-08-03T05:41:23.635Z,18.60
2022-08-03T05:42:02.587Z,18.66
2022-08-03T05:43:01.569Z,18.71
2022-08-03T05:44:01.608Z,18.75
2022-08-03T05:45:01.547Z,18.79
2022-08-03T05:46:12.262Z,18.86
2022-08-03T05:47:02.540Z,18.93
2022-08-03T05:48:01.510Z,18.97
2022-08-03T05:49:01.559Z,19.02
2022-08-03T05:50:01.480Z,19.09
2022-08-03T05:51:01.466Z,19.15
2022-08-03T05:52:11.024Z,19.20
2022-08-03T05:53:02.473Z,19.24
2022-08-03T05:54:01.433Z,19.30
2022-08-03T05:55:01.413Z,19.35
2022-08-03T05:56:03.559Z,19.42
2022-08-03T05:57:02.384Z,19.47
2022-08-03T05:58:01.376Z,19.52
2022-08-03T05:59:16.307Z,19.57
2022-08-03T06:00:02.346Z,19.64
2022-08-03T06:01:01.335Z,19.70
2022-08-03T06:02:01.366Z,19.79
2022-08-03T06:03:01.326Z,19.85
2022-08-03T06:04:01.298Z,19.89
2022-08-03T06:05:01.319Z,19.92
2022-08-03T06:06:01.277Z,19.97
2022-08-03T06:07:01.269Z,20.00
2022-08-03T06:08:01.262Z,20.02
2022-08-03T06:09:01.248Z,20.08
2022-08-03T06:10:36.784Z,20.13
2022-08-03T06:11:02.230Z,20.17
2022-08-03T06:12:01.201Z,20.22
2022-08-03T06:13:01.191Z,20.25
2022-08-03T06:14:01.170Z,20.30
2022-08-03T06:15:01.182Z,20.31
2022-08-03T06:16:01.151Z,20.31
2022-08-03T06:17:01.215Z,20.35
2022-08-03T06:18:02.226Z,20.42
2022-08-03T06:19:01.103Z,20.48
2022-08-03T06:20:01.111Z,20.56
2022-08-03T06:21:15.367Z,20.60
2022-08-03T06:22:02.198Z,20.64
2022-08-03T06:23:01.516Z,20.72
2022-08-03T06:24:01.037Z,20.76
2022-08-03T06:25:05.050Z,20.83
2022-08-03T06:26:02.024Z,20.91
2022-08-03T06:27:01.005Z,21.01
2022-08-03T06:28:01.021Z,21.09
2022-08-03T06:29:00.986Z,21.13
2022-08-03T06:30:00.962Z,21.21
2022-08-03T06:31:01.053Z,21.27
2022-08-03T06:32:00.936Z,21.34
2022-08-03T06:33:00.928Z,21.43
2022-08-03T06:34:32.353Z,21.46
2022-08-03T06:35:01.899Z,21.53
2022-08-03T06:36:00.882Z,21.59
2022-08-03T06:37:02.310Z,21.64
2022-08-03T06:38:00.878Z,21.68
2022-08-03T06:39:00.851Z,21.74
2022-08-03T06:40:00.871Z,21.81
2022-08-03T06:41:00.833Z,21.90
2022-08-03T06:42:00.820Z,21.91
2022-08-03T06:43:00.842Z,21.96
2022-08-03T06:44:03.608Z,22.01
2022-08-03T06:45:00.777Z,22.06
2022-08-03T06:46:00.789Z,22.14
2022-08-03T06:47:00.753Z,22.24
2022-08-03T06:48:00.746Z,22.31
2022-08-03T06:49:00.779Z,22.39
2022-08-03T06:50:12.284Z,22.46
2022-08-03T06:51:01.728Z,22.54
2022-08-03T06:52:03.631Z,22.63
2022-08-03T06:53:01.666Z,22.76
2022-08-03T06:54:00.674Z,22.86
2022-08-03T06:55:00.659Z,22.96
2022-08-03T06:56:00.631Z,23.06
2022-08-03T06:57:00.670Z,23.15
2022-08-03T06:58:03.642Z,23.21
2022-08-03T06:59:00.629Z,23.29
2022-08-03T07:00:09.450Z,23.41
2022-08-03T07:01:01.608Z,23.52
2022-08-03T07:02:00.570Z,23.60
2022-08-03T07:03:00.582Z,23.67
2022-08-03T07:04:00.524Z,23.72
2022-08-03T07:05:00.513Z,23.78
2022-08-03T07:06:00.511Z,23.81
2022-08-03T07:07:00.504Z,23.86
2022-08-03T07:08:00.477Z,23.93
2022-08-03T07:09:00.497Z,23.99
2022-08-03T07:10:00.455Z,24.06
2022-08-03T07:11:00.437Z,24.12
2022-08-03T07:12:00.430Z,24.12
2022-08-03T07:13:00.416Z,24.21
2022-08-03T07:14:00.400Z,24.24
2022-08-03T07:15:02.263Z,24.29
2022-08-03T07:16:00.379Z,24.34
2022-08-03T07:17:00.357Z,24.37
2022-08-03T07:18:00.350Z,24.33
2022-08-03T07:19:00.353Z,24.34
2022-08-03T07:20:00.370Z,24.42
2022-08-03T07:21:00.332Z,24.48
2022-08-03T07:22:02.211Z,24.56
2022-08-03T07:23:00.282Z,24.60
2022-08-03T07:24:00.304Z,24.67
2022-08-03T07:25:00.282Z,24.67
2022-08-03T07:26:00.317Z,24.79
2022-08-03T07:27:00.265Z,24.86
2022-08-03T07:28:00.216Z,24.92
2022-08-03T07:29:00.210Z,24.99
2022-08-03T07:30:00.212Z,25.08
2022-08-03T07:31:00.186Z,25.07
2022-08-03T07:32:00.205Z,25.17
2022-08-03T07:33:00.196Z,25.24
2022-08-03T07:34:00.150Z,25.35
2022-08-03T07:35:01.235Z,25.45
2022-08-03T07:36:00.126Z,25.56
2022-08-03T07:37:00.153Z,25.66
2022-08-03T07:38:00.112Z,25.75
2022-08-03T07:39:00.101Z,25.75
2022-08-03T07:40:00.092Z,25.81
2022-08-03T07:41:00.072Z,25.82
2022-08-03T07:42:00.051Z,25.89
2022-08-03T07:43:00.034Z,25.86
2022-08-03T07:44:00.035Z,25.97
2022-08-03T07:45:00.050Z,26.01
2022-08-03T07:46:00.944Z,26.08
2022-08-03T07:46:59.988Z,26.11
2022-08-03T07:48:00.004Z,26.13
2022-08-03T07:48:59.989Z,26.17
2022-08-03T07:49:59.940Z,26.24
2022-08-03T07:50:59.944Z,26.24
2022-08-03T07:51:59.931Z,26.28
2022-08-03T07:52:59.924Z,26.46
2022-08-03T07:53:59.892Z,26.60
2022-08-03T07:54:59.881Z,26.61
2022-08-03T07:55:59.883Z,26.69
2022-08-03T07:56:59.929Z,26.72
2022-08-03T07:57:59.867Z,26.72
2022-08-03T07:58:59.846Z,26.66
2022-08-03T08:00:01.954Z,26.60
2022-08-03T08:00:59.843Z,26.59
2022-08-03T08:01:59.812Z,26.60
2022-08-03T08:02:59.898Z,26.66
2022-08-03T08:03:59.767Z,26.81
2022-08-03T08:05:04.994Z,26.96
2022-08-03T08:06:00.746Z,27.06
2022-08-03T08:06:59.743Z,27.01
2022-08-03T08:07:59.774Z,27.12
2022-08-03T08:08:59.873Z,27.30
2022-08-03T08:09:59.704Z,27.27
2022-08-03T08:10:59.674Z,27.21
2022-08-03T08:11:59.664Z,27.15
2022-08-03T08:12:59.813Z,27.20
2022-08-03T08:13:59.735Z,27.25
2022-08-03T08:14:59.665Z,27.24
2022-08-03T08:15:59.656Z,27.34
2022-08-03T08:17:00.824Z,27.31
2022-08-03T08:17:59.706Z,27.38
2022-08-03T08:18:59.585Z,27.46
2022-08-03T08:19:59.569Z,27.61
2022-08-03T08:20:59.608Z,27.62
2022-08-03T08:22:02.462Z,27.69
2022-08-03T08:23:00.290Z,27.74
2022-08-03T08:23:59.541Z,27.84
2022-08-03T08:24:59.635Z,27.80
2022-08-03T08:25:59.512Z,27.87
2022-08-03T08:26:59.541Z,27.93
2022-08-03T08:28:29.647Z,27.98
2022-08-03T08:29:00.547Z,27.88
2022-08-03T08:30:07.212Z,27.72
2022-08-03T08:31:00.451Z,27.65
2022-08-03T08:31:59.449Z,27.62
2022-08-03T08:32:59.464Z,27.77
2022-08-03T08:34:03.931Z,28.02
2022-08-03T08:35:00.397Z,28.15
2022-08-03T08:35:59.417Z,28.25
2022-08-03T08:36:59.373Z,28.17
2022-08-03T08:37:59.399Z,28.25
2022-08-03T08:39:00.526Z,28.36
2022-08-03T08:39:59.330Z,28.36
2022-08-03T08:40:59.300Z,28.18
2022-08-03T08:41:59.302Z,28.25
2022-08-03T08:42:59.369Z,28.24
2022-08-03T08:44:00.183Z,28.35
2022-08-03T08:44:59.397Z,28.38
2022-08-03T08:45:59.272Z,28.38
2022-08-03T08:47:00.182Z,28.35
2022-08-03T08:48:02.525Z,28.43
2022-08-03T08:49:00.271Z,28.55
2022-08-03T08:50:09.670Z,28.67
2022-08-03T08:51:00.215Z,28.80
2022-08-03T08:52:01.071Z,28.83
2022-08-03T08:52:59.160Z,28.91
2022-08-03T08:53:59.157Z,28.83
2022-08-03T08:55:00.179Z,28.94
2022-08-03T08:56:00.733Z,28.62
2022-08-03T08:56:59.158Z,28.28
2022-08-03T08:57:59.149Z,28.38
2022-08-03T08:58:59.140Z,28.32
2022-08-03T08:59:59.139Z,28.43
2022-08-03T09:00:59.089Z,28.52
2022-08-03T09:01:59.058Z,28.36
2022-08-03T09:02:59.076Z,28.42
2022-08-03T09:03:59.009Z,28.57
2022-08-03T09:04:59.028Z,28.67
2022-08-03T09:05:58.984Z,28.70
2022-08-03T09:07:19.199Z,28.67
2022-08-03T09:07:59.954Z,28.72
2022-08-03T09:08:58.950Z,28.82
2022-08-03T09:10:10.649Z,28.72
2022-08-03T09:10:59.925Z,28.76
2022-08-03T09:12:20.032Z,28.72
2022-08-03T09:13:00.907Z,28.65
2022-08-03T09:13:59.835Z,28.48
2022-08-03T09:15:15.974Z,28.61
2022-08-03T09:16:01.260Z,28.64
2022-08-03T09:16:58.852Z,28.61
2022-08-03T09:17:58.840Z,28.48
2022-08-03T09:18:58.848Z,28.65
2022-08-03T09:20:03.429Z,28.83
2022-08-03T09:21:14.785Z,28.87
2022-08-03T09:21:59.822Z,28.80
2022-08-03T09:22:58.846Z,28.74
2022-08-03T09:24:02.785Z,28.69
2022-08-03T09:25:22.824Z,28.65
2022-08-03T09:26:00.716Z,28.51
2022-08-03T09:26:58.790Z,28.55
2022-08-03T09:27:58.800Z,28.69
2022-08-03T09:29:04.672Z,28.77
2022-08-03T09:29:59.710Z,28.83
2022-08-03T09:30:58.814Z,28.95
2022-08-03T09:31:59.482Z,28.87
2022-08-03T09:32:58.665Z,28.85
2022-08-03T09:33:58.633Z,28.98
2022-08-03T09:34:58.644Z,29.14
2022-08-03T09:35:58.657Z,29.18
2022-08-03T09:36:58.722Z,29.27
2022-08-03T09:38:12.117Z,29.20
2022-08-03T09:38:59.578Z,28.85
2022-08-03T09:39:58.563Z,28.72
2022-08-03T09:41:00.826Z,28.76
2022-08-03T09:41:58.545Z,28.92
2022-08-03T09:42:58.557Z,29.05
2022-08-03T09:43:58.549Z,29.02
2022-08-03T09:44:58.515Z,28.97
2022-08-03T09:45:59.429Z,28.98
2022-08-03T09:46:58.481Z,29.17
2022-08-03T09:47:58.443Z,29.33
2022-08-03T09:48:58.557Z,29.33
2022-08-03T09:49:58.436Z,29.29
2022-08-03T09:51:13.909Z,29.36
2022-08-03T09:52:32.222Z,29.25
2022-08-03T09:52:59.408Z,28.95
2022-08-03T09:53:59.735Z,29.00
2022-08-03T09:54:58.479Z,28.88
2022-08-03T09:56:36.282Z,28.89
2022-08-03T09:56:59.350Z,28.82
2022-08-03T09:57:58.322Z,28.95
2022-08-03T09:58:58.317Z,29.15
2022-08-03T10:00:04.767Z,29.03
2022-08-03T10:00:59.367Z,29.14
2022-08-03T10:01:58.280Z,29.25
2022-08-03T10:02:58.262Z,29.47
2022-08-03T10:04:04.010Z,29.74
2022-08-03T10:04:59.255Z,29.85
2022-08-03T10:05:59.975Z,29.95
2022-08-03T10:06:59.192Z,30.00
2022-08-03T10:07:58.202Z,30.07
2022-08-03T10:08:58.183Z,30.13
2022-08-03T10:09:58.186Z,29.78
2022-08-03T10:10:59.170Z,29.67
2022-08-03T10:11:58.164Z,29.78
2022-08-03T10:12:58.169Z,29.85
2022-08-03T10:14:01.196Z,29.92
2022-08-03T10:14:58.117Z,29.82
2022-08-03T10:16:23.720Z,29.69
2022-08-03T10:16:59.086Z,29.71
2022-08-03T10:17:58.079Z,29.81
2022-08-03T10:18:58.087Z,29.84
2022-08-03T10:19:58.065Z,30.00
2022-08-03T10:20:58.042Z,29.71
2022-08-03T10:21:58.044Z,29.66
2022-08-03T10:22:58.024Z,29.45
2022-08-03T10:23:58.000Z,29.51
2022-08-03T10:24:58.033Z,29.55
2022-08-03T10:25:57.972Z,29.57
2022-08-03T10:26:57.963Z,29.60
2022-08-03T10:27:57.955Z,29.60
2022-08-03T10:28:57.937Z,29.52
2022-08-03T10:29:57.941Z,29.49
2022-08-03T10:30:57.958Z,29.47
2022-08-03T10:31:58.652Z,29.51
2022-08-03T10:32:57.885Z,29.55
2022-08-03T10:33:57.883Z,29.64
2022-08-03T10:34:59.826Z,29.69
2022-08-03T10:35:57.855Z,29.73
2022-08-03T10:36:57.857Z,29.63
2022-08-03T10:37:59.091Z,29.62
2022-08-03T10:38:57.854Z,29.66
2022-08-03T10:39:57.834Z,29.66
2022-08-03T10:40:59.295Z,29.45
2022-08-03T10:41:57.793Z,29.47
2022-08-03T10:42:57.829Z,29.12
2022-08-03T10:43:57.759Z,29.05
2022-08-03T10:44:57.752Z,29.11
2022-08-03T10:45:57.749Z,29.10
2022-08-03T10:46:57.722Z,29.12
2022-08-03T10:47:57.713Z,29.27
2022-08-03T10:48:57.785Z,29.42
2022-08-03T10:49:57.747Z,29.52
2022-08-03T10:50:57.659Z,29.39
2022-08-03T10:51:57.655Z,29.49
2022-08-03T10:52:57.657Z,29.42
2022-08-03T10:53:57.655Z,29.33
2022-08-03T10:54:57.619Z,29.47
2022-08-03T10:55:57.652Z,29.54
2022-08-03T10:56:57.588Z,29.70
2022-08-03T10:57:58.827Z,29.81
2022-08-03T10:58:58.152Z,29.91
2022-08-03T10:59:57.768Z,30.04
2022-08-03T11:00:57.592Z,30.07
2022-08-03T11:02:00.269Z,30.15
2022-08-03T11:02:57.511Z,30.15
2022-08-03T11:03:57.510Z,30.23
2022-08-03T11:04:57.490Z,30.32
2022-08-03T11:05:57.531Z,30.48
2022-08-03T11:06:57.454Z,30.57
2022-08-03T11:07:57.451Z,30.61
2022-08-03T11:08:57.432Z,30.56
2022-08-03T11:09:57.472Z,30.49
2022-08-03T11:10:57.413Z,30.19
2022-08-03T11:11:57.433Z,29.92
2022-08-03T11:12:57.394Z,29.78
2022-08-03T11:13:57.399Z,29.73
2022-08-03T11:14:57.367Z,29.82
2022-08-03T11:16:01.766Z,29.89
2022-08-03T11:16:58.445Z,30.03
2022-08-03T11:17:57.316Z,30.08
2022-08-03T11:18:57.319Z,29.99
2022-08-03T11:19:58.649Z,29.91
2022-08-03T11:20:57.288Z,30.08
2022-08-03T11:21:57.269Z,30.16
2022-08-03T11:22:57.290Z,30.25
2022-08-03T11:24:02.798Z,30.34
2022-08-03T11:24:58.233Z,30.30
2022-08-03T11:25:57.222Z,30.49
2022-08-03T11:26:57.221Z,30.64
2022-08-03T11:27:57.204Z,30.70
2022-08-03T11:28:57.240Z,30.73
2022-08-03T11:29:57.236Z,30.78
2022-08-03T11:30:57.260Z,30.79
2022-08-03T11:31:57.171Z,30.78
2022-08-03T11:32:57.166Z,30.72
2022-08-03T11:33:57.126Z,30.75
2022-08-03T11:34:57.159Z,30.75
2022-08-03T11:35:57.114Z,30.79
2022-08-03T11:36:57.079Z,30.64
2022-08-03T11:38:04.450Z,30.60
2022-08-03T11:38:58.058Z,30.45
2022-08-03T11:39:57.133Z,30.29
2022-08-03T11:40:57.069Z,30.42
2022-08-03T11:41:57.029Z,30.49
2022-08-03T11:42:57.041Z,30.60
2022-08-03T11:43:57.000Z,30.60
2022-08-03T11:44:57.001Z,30.66
2022-08-03T11:45:56.983Z,30.73
2022-08-03T11:46:56.983Z,30.63
2022-08-03T11:47:56.971Z,30.64
2022-08-03T11:48:57.003Z,30.51
2022-08-03T11:49:56.927Z,30.56
2022-08-03T11:50:56.924Z,30.59
2022-08-03T11:51:56.925Z,30.63
2022-08-03T11:52:56.915Z,30.63
2022-08-03T11:53:56.877Z,30.75
2022-08-03T11:54:57.490Z,30.82
2022-08-03T11:55:56.869Z,30.83
2022-08-03T11:56:56.855Z,30.91
2022-08-03T11:59:01.773Z,31.04
2022-08-03T11:59:18.310Z,31.05
2022-08-03T11:59:57.837Z,31.07
2022-08-03T12:00:56.779Z,31.10
2022-08-03T12:01:56.770Z,31.13
2022-08-03T12:02:56.799Z,31.09
2022-08-03T12:03:56.819Z,31.01
2022-08-03T12:04:56.760Z,31.04
2022-08-03T12:05:56.757Z,30.75
2022-08-03T12:06:56.704Z,30.83
2022-08-03T12:08:03.826Z,30.91
2022-08-03T12:08:57.712Z,30.98
2022-08-03T12:09:56.675Z,31.04
2022-08-03T12:10:56.698Z,31.09
2022-08-03T12:12:00.452Z,31.10
2022-08-03T12:12:56.658Z,31.13
2022-08-03T12:14:49.683Z,31.19
2022-08-03T12:14:57.632Z,31.20
2022-08-03T12:15:56.617Z,31.27
2022-08-03T12:16:56.617Z,31.28
2022-08-03T12:17:57.939Z,31.35
2022-08-03T12:18:56.567Z,31.45
2022-08-03T12:19:57.507Z,31.35
2022-08-03T12:20:56.532Z,31.53
2022-08-03T12:21:57.005Z,31.42
2022-08-03T12:22:56.540Z,31.37
2022-08-03T12:23:56.504Z,31.31
2022-08-03T12:24:56.481Z,31.28
2022-08-03T12:25:56.473Z,31.27
2022-08-03T12:26:58.503Z,31.32
2022-08-03T12:27:56.455Z,31.28
2022-08-03T12:28:56.484Z,31.04
2022-08-03T12:29:58.761Z,30.72
2022-08-03T12:30:56.415Z,30.61
2022-08-03T12:31:56.537Z,30.59
2022-08-03T12:32:56.857Z,30.70
2022-08-03T12:33:56.380Z,30.88
2022-08-03T12:34:56.397Z,31.04
2022-08-03T12:35:57.318Z,31.15
2022-08-03T12:36:56.339Z,31.38
2022-08-03T12:37:56.332Z,31.53
2022-08-03T12:38:56.309Z,31.60
2022-08-03T12:40:01.378Z,31.59
2022-08-03T12:40:57.309Z,31.64
2022-08-03T12:41:56.272Z,31.53
2022-08-03T12:42:56.260Z,31.42
2022-08-03T12:43:56.251Z,31.49
2022-08-03T12:44:56.520Z,31.60
2022-08-03T12:45:56.252Z,31.50
2022-08-03T12:46:56.217Z,31.49
2022-08-03T12:47:56.213Z,31.54
2022-08-03T12:48:56.245Z,31.62
2022-08-03T12:49:57.134Z,31.54
2022-08-03T12:50:56.164Z,31.54
2022-08-03T12:51:56.185Z,31.60